KGLH

Greenville Mid-Delta Airport

Greenville, Mississippi, USA
METAR KGLH 162353Z 15007KT 10SM CLR 09/M01 A3017 RMK AO2 SLP226 T00941011 10133 20094 53003
Observed Flight Rules
Dec-16 @ 23:53 UTC (33 minutes ago) Visual Flight Rules
Wind Visibility Clouds
150° at 7 knots 10 miles
  • Clear skies
Temperatures Readings
Current 9°C / 48°F
Dewpoint -1°C / 30°F
Humidity 50%
Altimeter 30.17" Hg
Pressure 1022.6 hPa
Elevation 45
METAR KGLH 162353Z 15007KT 10SM CLR 09/M01 A3017 RMK AO2 SLP226 T00941011 10133 20094 53003
Observed Flight Rules
Dec-16 @ 23:53 UTC
(33 minutes ago)
VFR
Wind Visibility
150° at 7 knots 10 miles
Clouds
  • Clear skies
Temperature Dewpoint
9°C / 48°F -1°C / 30°F
Humidity Altimeter Pressure
50% 30.17" Hg 1022.6 hPa